Logan - 24 Hour Table
Date & TimeSolar
Radiation
(W/m²)
Wind
Speed
(mph)
Wind
Direction
(degrees)
Air
Temperature
(°F)
Relative
Humidity
(%)
Precipitation
(inches)
Barometric
Pressure
(inHg)
2017/05/23 11:00 850 3.1 311 66.9 45 0.00 30.15
2017/05/23 10:00 721 5.1 335 63.7 51 0.00 30.17
2017/05/23 09:00 598 4.2 10 59.3 58 0.00 30.18
2017/05/23 08:00 406 2.8 4 56.0 66 0.00 30.18
2017/05/23 07:00 216 1.5 342 51.3 73 0.00 30.19
2017/05/23 06:00 44 1.5 286 45.0 93 0.00 30.19
2017/05/23 05:00 0 1.5 309 47.5 90 0.00 30.18
2017/05/23 04:00 0 3.0 10 49.2 89 0.00 30.18
2017/05/23 03:00 0 3.3 3 50.1 83 0.00 30.17
2017/05/23 02:00 0 2.9 136 53.5 68 0.00 30.16
2017/05/23 01:00 0 2.5 135 53.5 79 0.00 30.17
2017/05/23 00:00 0 3.6 228 53.2 69 0.00 30.17
2017/05/22 23:00 0 1.9 269 56.7 76 0.00 30.17
2017/05/22 22:00 0 1.7 87 60.8 76 0.00 30.16
2017/05/22 21:00 0 2.9 74 63.6 51 0.00 30.14
2017/05/22 20:00 39 2.8 325 66.6 50 0.00 30.13
2017/05/22 19:00 151 4.7 303 69.1 52 0.00 30.12
2017/05/22 18:00 378 5.9 302 71.4 36 0.00 30.12
2017/05/22 17:00 545 7.4 262 71.4 36 0.00 30.12
2017/05/22 16:00 737 9.1 255 71.7 39 0.00 30.13
2017/05/22 15:00 829 8.2 271 71.0 43 0.00 30.14
2017/05/22 14:00 909 4.1 332 69.4 47 0.00 30.16
2017/05/22 13:00 998 3.3 29 68.3 41 0.00 30.18
2017/05/22 12:00 973 2.8 3 65.9 43 0.00 30.20